Husser, Louisiana
Current Conditions -  °F | °C
As of 1:55 PM on Friday 24 Oct 2014 (Local Time) from KHDC Reporting Station
Clear Clear  
Wind Chill: 77°   Ceiling: Unl
Heat Index: 77°   Visibility: 10mi
Dew Point: 37°   Wind: 6mph
Humidity: 24%   Direction: 20°NNE
Pressure: 30.08"   Gusts: NA
Location:  30.68°N, 90.34°W
Report Text: KHDC 241855Z AUTO 02005KT 10SM CLR 25/03 A3008 RMK AO2
Loading
Personal Weather Stations






























Interactive Weather Map
Tropical Storm Tracking
New forecast layout! Learn more

10-Day Weather Forecast

Advertisements
Track Severe Weather on mobile